This is the latest recevied weather packets stored in our database for station/object KJ4EWA. If no packets are shown the sender has not sent any weather packets the latest 10 day(s).
| Time | Temp. | Humidity | Pressure | Rain* | Wind** | Luminosity | Snow |
|---|---|---|---|---|---|---|---|
| 1777405881 | 27.22° C | 82% | 1021.9 hPa | 0 mm | - | 481 W/m² | - |
| 1777405577 | 26.67° C | 84% | 1021.9 hPa | 0 mm | - | 480 W/m² | - |
| 1777405275 | 27.22° C | 82% | 1022 hPa | 0 mm | - | 242 W/m² | - |
| 1777404974 | 27.22° C | 82% | 1021.7 hPa | 0 mm | - | 204 W/m² | - |
| 1777404669 | 27.22° C | 82% | 1021.6 hPa | 0 mm | - | 404 W/m² | - |
| 1777404365 | 26.67° C | 83% | 1021.7 hPa | 0 mm | - | 389 W/m² | - |
| 1777404062 | 27.22° C | 82% | 1021.8 hPa | 0 mm | - | 525 W/m² | - |
| 1777403757 | 27.22° C | 82% | 1021.5 hPa | 0 mm | - | 592 W/m² | - |
| 1777403456 | 26.67° C | 83% | 1021.8 hPa | 0 mm | - | 401 W/m² | - |
| 1777403150 | 26.67° C | 84% | 1021.7 hPa | 0 mm | - | 202 W/m² | - |
| 1777402846 | 26.67° C | 86% | 1021.7 hPa | 0 mm | - | 248 W/m² | - |
| 1777402543 | 26.11° C | 85% | 1022 hPa | 0 mm | - | 186 W/m² | - |
| 1777402241 | 26.67° C | 84% | 1022 hPa | 0 mm | - | 177 W/m² | - |
| 1777401936 | 26.11° C | 85% | 1022.1 hPa | 0 mm | - | 237 W/m² | - |
| 1777401634 | 27.22° C | 83% | 1022.1 hPa | 0 mm | - | 157 W/m² | - |
| 1777401332 | 27.78° C | 82% | 1022.3 hPa | 0 mm | - | 248 W/m² | - |
| 1777401027 | 27.22° C | 81% | 1022.2 hPa | 0 mm | - | 754 W/m² | - |
| 1777400723 | 27.22° C | 82% | 1022.2 hPa | 0 mm | - | 284 W/m² | - |
| 1777400421 | 26.67° C | 82% | 1022.3 hPa | 0 mm | - | 224 W/m² | - |
| 1777400120 | 27.78° C | 80% | 1022.2 hPa | 0 mm | - | 235 W/m² | - |
| 1777399818 | 27.78° C | 81% | 1022.5 hPa | 0 mm | - | 751 W/m² | - |
| 1777399515 | 27.78° C | 79% | 1022.6 hPa | 0 mm | - | 319 W/m² | - |
| 1777399212 | 27.78° C | 78% | 1022.5 hPa | 0 mm | - | 774 W/m² | - |
| 1777398910 | 27.78° C | 77% | 1022.5 hPa | 0 mm | - | 736 W/m² | - |
| 1777398606 | 27.78° C | 80% | 1022.6 hPa | 0 mm | - | 733 W/m² | - |
* Rain latest hour (hover to see other rain measurements)
** Current wind speed in m/s (hover to see current wind gust speed)